createdAt,value
2018-05-31T00:00:14.950Z,0.70
2018-05-31T00:02:41.658Z,0.60
2018-05-31T00:05:08.387Z,0.70
2018-05-31T00:07:35.107Z,0.60
2018-05-31T00:10:01.828Z,0.50
2018-05-31T00:12:28.556Z,0.57
2018-05-31T00:14:55.307Z,0.50
2018-05-31T00:17:22.043Z,0.50
2018-05-31T00:19:48.961Z,0.70
2018-05-31T00:22:15.691Z,0.60
2018-05-31T00:24:42.442Z,0.63
2018-05-31T00:27:09.163Z,0.70
2018-05-31T00:29:35.900Z,0.70
2018-05-31T00:32:02.622Z,0.53
2018-05-31T00:34:29.332Z,0.80
2018-05-31T00:36:56.062Z,0.83
2018-05-31T00:39:22.796Z,0.70
2018-05-31T00:41:49.532Z,0.70
2018-05-31T00:44:16.264Z,0.70
2018-05-31T00:46:42.980Z,0.70
2018-05-31T00:49:09.697Z,0.70
2018-05-31T00:51:36.401Z,0.60
2018-05-31T00:54:03.147Z,0.47
2018-05-31T00:56:29.852Z,0.70
2018-05-31T00:58:56.556Z,0.70
2018-05-31T01:01:23.281Z,0.87
2018-05-31T01:03:50.004Z,0.77
2018-05-31T01:06:16.735Z,0.60
2018-05-31T01:08:43.454Z,0.70
2018-05-31T01:11:10.182Z,0.70
2018-05-31T01:13:36.902Z,0.60
2018-05-31T01:16:03.628Z,0.60
2018-05-31T01:18:30.352Z,0.67
2018-05-31T01:20:57.080Z,0.60
2018-05-31T01:23:23.803Z,0.73
2018-05-31T01:25:50.519Z,0.70
2018-05-31T01:28:17.255Z,0.80
2018-05-31T01:30:43.970Z,0.70
2018-05-31T01:33:10.695Z,0.60
2018-05-31T01:35:37.442Z,0.80
2018-05-31T01:38:09.856Z,0.70
2018-05-31T01:40:36.620Z,0.90
2018-05-31T01:43:03.549Z,0.80
2018-05-31T01:45:30.268Z,0.80
2018-05-31T01:47:57.021Z,0.70
2018-05-31T01:50:23.731Z,0.60
2018-05-31T01:52:50.451Z,0.80
2018-05-31T01:55:17.159Z,0.90
2018-05-31T01:57:43.881Z,0.80
2018-05-31T02:00:10.643Z,0.80
2018-05-31T02:02:37.380Z,0.87
2018-05-31T02:05:04.096Z,0.90
2018-05-31T02:07:30.812Z,0.83
2018-05-31T02:09:57.512Z,0.93
2018-05-31T02:12:24.254Z,0.80
2018-05-31T02:14:50.979Z,0.93
2018-05-31T02:17:17.707Z,0.70
2018-05-31T02:19:44.429Z,1.00
2018-05-31T02:22:11.152Z,0.80
2018-05-31T02:24:37.904Z,0.83
2018-05-31T02:27:04.628Z,0.80
2018-05-31T02:29:31.336Z,0.90
2018-05-31T02:31:58.044Z,0.77
2018-05-31T02:34:24.763Z,1.00
2018-05-31T02:36:51.512Z,0.80
2018-05-31T02:39:18.252Z,0.80
2018-05-31T02:41:44.989Z,0.80
2018-05-31T02:44:11.708Z,0.90
2018-05-31T02:46:38.414Z,0.90
2018-05-31T02:49:05.124Z,0.90
2018-05-31T02:51:31.875Z,1.10
2018-05-31T02:53:58.579Z,1.20
2018-05-31T02:56:25.315Z,0.90
2018-05-31T02:58:52.028Z,0.87
2018-05-31T03:01:18.747Z,0.90
2018-05-31T03:03:45.488Z,0.90
2018-05-31T03:06:12.206Z,1.10
2018-05-31T03:08:38.919Z,0.90
2018-05-31T03:11:05.652Z,0.80
2018-05-31T03:13:32.375Z,0.90
2018-05-31T03:15:59.115Z,0.90
2018-05-31T03:18:25.827Z,0.80
2018-05-31T03:20:52.536Z,1.10
2018-05-31T03:23:19.251Z,1.33
2018-05-31T03:25:45.956Z,0.90
2018-05-31T03:28:12.697Z,1.00
2018-05-31T03:30:39.637Z,1.00
2018-05-31T03:33:06.352Z,1.27
2018-05-31T03:35:33.063Z,1.10
2018-05-31T03:37:59.797Z,0.93
2018-05-31T03:40:26.538Z,0.90
2018-05-31T03:42:53.266Z,0.80
2018-05-31T03:45:19.979Z,0.90
2018-05-31T03:47:46.708Z,0.90
2018-05-31T03:50:13.428Z,0.90
2018-05-31T03:52:40.189Z,1.30
2018-05-31T03:55:06.928Z,0.90
2018-05-31T03:57:33.647Z,0.80
2018-05-31T04:00:00.377Z,1.33
2018-05-31T04:02:27.112Z,1.20
2018-05-31T04:04:53.852Z,1.00
2018-05-31T04:07:20.589Z,0.90
2018-05-31T04:09:47.305Z,0.80
2018-05-31T04:12:14.024Z,1.20
2018-05-31T04:14:40.734Z,0.87
2018-05-31T04:17:07.470Z,1.10
2018-05-31T04:19:34.191Z,1.00
2018-05-31T04:22:00.917Z,1.13
2018-05-31T04:24:27.636Z,0.87
2018-05-31T04:26:54.343Z,1.20
2018-05-31T04:29:21.095Z,0.93
2018-05-31T04:31:47.993Z,1.00
2018-05-31T04:34:14.733Z,1.00
2018-05-31T04:36:41.455Z,1.20
2018-05-31T04:39:08.179Z,0.90
2018-05-31T04:41:34.943Z,1.10
2018-05-31T04:44:01.701Z,1.20
2018-05-31T04:46:28.423Z,1.17
2018-05-31T04:48:55.147Z,1.07
2018-05-31T04:51:21.856Z,1.20
2018-05-31T04:53:48.626Z,1.20
2018-05-31T04:56:15.348Z,1.10
2018-05-31T04:58:42.087Z,0.90
2018-05-31T05:01:08.799Z,1.30
2018-05-31T05:03:35.544Z,1.03
2018-05-31T05:06:02.289Z,1.20
2018-05-31T05:08:29.015Z,1.13
2018-05-31T05:10:55.747Z,1.27
2018-05-31T05:13:22.472Z,1.13
2018-05-31T05:15:49.208Z,1.13
2018-05-31T05:18:15.958Z,1.30
2018-05-31T05:20:42.676Z,1.13
2018-05-31T05:23:09.404Z,1.20
2018-05-31T05:25:36.133Z,1.20
2018-05-31T05:28:02.857Z,1.10
2018-05-31T05:30:29.604Z,1.20
2018-05-31T05:32:56.331Z,1.17
2018-05-31T05:35:23.047Z,1.30
2018-05-31T05:37:49.787Z,1.20
2018-05-31T05:40:16.505Z,1.20
2018-05-31T05:42:43.267Z,1.20
2018-05-31T05:45:10.004Z,1.10
2018-05-31T05:47:36.724Z,1.17
2018-05-31T05:50:03.447Z,1.23
2018-05-31T05:52:31.001Z,1.10
2018-05-31T05:54:58.212Z,1.27
2018-05-31T05:57:24.983Z,1.27
2018-05-31T05:59:51.721Z,1.10
2018-05-31T06:02:18.456Z,1.10
2018-05-31T06:04:45.217Z,1.30
2018-05-31T06:07:11.923Z,1.40
2018-05-31T06:09:38.628Z,1.20
2018-05-31T06:12:05.327Z,1.30
2018-05-31T06:14:32.056Z,1.27
2018-05-31T06:16:58.772Z,1.20
2018-05-31T06:19:25.539Z,1.30
2018-05-31T06:21:52.248Z,1.30
2018-05-31T06:24:18.964Z,1.37
2018-05-31T06:26:45.692Z,1.40
2018-05-31T06:29:12.419Z,1.20
2018-05-31T06:31:39.391Z,1.10
2018-05-31T06:34:06.100Z,1.27
2018-05-31T06:36:32.824Z,1.20
2018-05-31T06:38:59.532Z,1.30
2018-05-31T06:41:26.903Z,1.30
2018-05-31T06:43:53.639Z,1.23
2018-05-31T06:46:20.331Z,1.50
2018-05-31T06:48:47.053Z,1.30
2018-05-31T06:51:13.760Z,1.33
2018-05-31T06:53:40.465Z,1.30
2018-05-31T06:56:07.200Z,1.20
2018-05-31T06:58:33.909Z,1.50
2018-05-31T07:01:00.617Z,1.40
2018-05-31T07:03:27.335Z,1.50
2018-05-31T07:05:54.045Z,1.40
2018-05-31T07:08:20.790Z,1.20
2018-05-31T07:10:47.496Z,1.20
2018-05-31T07:13:15.058Z,1.37
2018-05-31T07:15:41.764Z,1.17
2018-05-31T07:18:08.468Z,1.30
2018-05-31T07:20:35.201Z,1.30
2018-05-31T07:23:01.908Z,1.40
2018-05-31T07:25:28.612Z,1.33
2018-05-31T07:27:55.332Z,1.40
2018-05-31T07:30:22.040Z,1.40
2018-05-31T07:32:48.755Z,1.37
2018-05-31T07:35:15.456Z,1.30
2018-05-31T07:37:42.162Z,1.50
2018-05-31T07:40:08.881Z,1.10
2018-05-31T07:42:35.592Z,1.10
2018-05-31T07:45:02.332Z,1.30
2018-05-31T07:47:29.028Z,1.43
2018-05-31T07:49:55.767Z,1.30
2018-05-31T07:52:22.477Z,1.23
2018-05-31T07:54:49.180Z,1.40
2018-05-31T07:57:15.915Z,1.60
2018-05-31T07:59:42.622Z,1.30
2018-05-31T08:02:09.327Z,1.30
2018-05-31T08:04:36.028Z,1.20
2018-05-31T08:07:02.724Z,1.40
2018-05-31T08:09:29.471Z,1.27
2018-05-31T08:11:56.187Z,1.30
2018-05-31T08:14:22.884Z,1.50
2018-05-31T08:16:49.587Z,1.30
2018-05-31T08:19:16.295Z,1.40
2018-05-31T08:21:43.016Z,1.30
2018-05-31T08:24:09.717Z,1.20
2018-05-31T08:26:36.422Z,1.47
2018-05-31T08:29:03.119Z,1.63
2018-05-31T08:31:29.874Z,1.30
2018-05-31T08:33:56.584Z,1.40
2018-05-31T08:36:23.321Z,1.40
2018-05-31T08:38:50.041Z,1.50
2018-05-31T08:41:16.761Z,1.50
2018-05-31T08:43:43.463Z,1.40
2018-05-31T08:46:10.173Z,1.40
2018-05-31T08:48:36.900Z,1.60
2018-05-31T08:51:03.653Z,1.50
2018-05-31T08:53:30.343Z,1.60
2018-05-31T08:55:57.050Z,1.47
2018-05-31T08:58:23.759Z,1.60
2018-05-31T09:00:50.485Z,1.40
2018-05-31T09:03:17.194Z,1.37
2018-05-31T09:05:43.895Z,1.20
2018-05-31T09:08:10.608Z,1.47
2018-05-31T09:10:37.304Z,1.43
2018-05-31T09:13:04.032Z,1.40
2018-05-31T09:15:30.749Z,1.43
2018-05-31T09:17:57.443Z,1.40
2018-05-31T09:20:24.155Z,1.50
2018-05-31T09:22:50.856Z,1.30
2018-05-31T09:25:17.589Z,1.30
2018-05-31T09:27:44.292Z,1.53
2018-05-31T09:30:10.996Z,1.30
2018-05-31T09:32:37.704Z,1.50
2018-05-31T09:35:04.483Z,1.40
2018-05-31T09:37:31.205Z,1.20
2018-05-31T09:39:57.903Z,1.30
2018-05-31T09:42:24.601Z,1.30
2018-05-31T09:44:51.317Z,1.30
2018-05-31T09:47:18.020Z,1.40
2018-05-31T09:49:44.750Z,1.40
2018-05-31T09:52:11.443Z,1.43
2018-05-31T09:54:38.149Z,1.27
2018-05-31T09:57:04.848Z,1.20
2018-05-31T09:59:31.552Z,1.43
2018-05-31T10:01:58.261Z,1.30
2018-05-31T10:04:24.973Z,1.50
2018-05-31T10:06:51.715Z,1.50
2018-05-31T10:09:18.428Z,1.30
2018-05-31T10:11:45.137Z,1.30
2018-05-31T10:14:11.839Z,1.40
2018-05-31T10:16:38.544Z,1.40
2018-05-31T10:19:05.274Z,1.57
2018-05-31T10:21:32.003Z,1.40
2018-05-31T10:23:58.704Z,1.70
2018-05-31T10:26:25.408Z,1.60
2018-05-31T10:28:52.110Z,1.40
2018-05-31T10:31:18.847Z,1.60
2018-05-31T10:33:45.557Z,1.30
2018-05-31T10:36:12.322Z,1.10
2018-05-31T10:38:39.025Z,1.33
2018-05-31T10:41:05.731Z,1.50
2018-05-31T10:43:32.456Z,1.60
2018-05-31T10:45:59.164Z,1.40
2018-05-31T10:48:25.871Z,1.67
2018-05-31T10:50:52.576Z,1.45
2018-05-31T10:53:19.281Z,1.30
2018-05-31T10:55:46.012Z,1.30
2018-05-31T10:58:12.711Z,1.48
2018-05-31T11:00:39.416Z,1.40
2018-05-31T11:03:06.116Z,1.40
2018-05-31T11:05:32.840Z,1.50
2018-05-31T11:07:59.579Z,1.15
2018-05-31T11:10:26.284Z,1.40
2018-05-31T11:12:52.980Z,1.37
2018-05-31T11:15:19.693Z,1.40
2018-05-31T11:17:46.396Z,1.62
2018-05-31T11:20:13.134Z,1.40
2018-05-31T11:22:39.835Z,1.20
2018-05-31T11:25:06.540Z,1.60
2018-05-31T11:27:33.263Z,1.33
2018-05-31T11:29:59.981Z,1.20
2018-05-31T11:32:26.700Z,1.30
2018-05-31T11:34:53.400Z,1.40
2018-05-31T11:37:20.124Z,1.30
2018-05-31T11:39:46.831Z,1.42
2018-05-31T11:42:13.543Z,1.40
2018-05-31T11:44:40.275Z,1.33
2018-05-31T11:47:07.297Z,1.40
2018-05-31T11:49:34.005Z,1.12
2018-05-31T11:52:00.718Z,1.50
2018-05-31T11:54:27.424Z,1.50
2018-05-31T11:56:54.156Z,1.25
2018-05-31T11:59:20.862Z,1.50
2018-05-31T12:01:47.622Z,1.40
2018-05-31T12:04:14.288Z,1.48
2018-05-31T12:06:40.998Z,1.40
2018-05-31T12:09:07.738Z,1.45
2018-05-31T12:11:34.444Z,1.47
2018-05-31T12:14:01.155Z,1.37
2018-05-31T12:16:27.891Z,1.30
2018-05-31T12:18:54.598Z,1.37
2018-05-31T12:21:21.339Z,1.47
2018-05-31T12:23:48.060Z,1.30
2018-05-31T12:26:14.759Z,1.53
2018-05-31T12:28:41.464Z,1.50
2018-05-31T12:31:08.168Z,1.27
2018-05-31T12:33:34.916Z,1.30
2018-05-31T12:36:01.622Z,1.20
2018-05-31T12:38:28.332Z,1.47
2018-05-31T12:40:55.036Z,1.43
2018-05-31T12:43:21.744Z,1.10
2018-05-31T12:45:48.479Z,1.47
2018-05-31T12:48:15.172Z,1.50
2018-05-31T12:50:41.887Z,1.50
2018-05-31T12:53:08.591Z,1.37
2018-05-31T12:55:35.289Z,1.20
2018-05-31T12:58:02.012Z,1.37
2018-05-31T13:00:28.712Z,1.47
2018-05-31T13:02:55.420Z,1.40
2018-05-31T13:05:22.848Z,1.43
2018-05-31T13:07:49.564Z,1.37
2018-05-31T13:10:16.307Z,1.40
2018-05-31T13:12:43.020Z,1.13
2018-05-31T13:15:09.732Z,1.63
2018-05-31T13:17:37.231Z,1.30
2018-05-31T13:20:04.042Z,1.20
2018-05-31T13:22:30.793Z,1.40
2018-05-31T13:24:57.504Z,1.40
2018-05-31T13:27:24.821Z,1.40
2018-05-31T13:29:51.528Z,1.20
2018-05-31T13:32:18.232Z,1.37
2018-05-31T13:34:45.640Z,1.40
2018-05-31T13:37:12.354Z,1.40
2018-05-31T13:39:39.059Z,1.30
2018-05-31T13:42:05.775Z,1.50
2018-05-31T13:44:32.520Z,1.20
2018-05-31T13:46:59.280Z,1.20
2018-05-31T13:49:25.996Z,1.10
2018-05-31T13:51:54.056Z,1.10
2018-05-31T13:54:20.831Z,1.33
2018-05-31T13:56:47.564Z,1.30
2018-05-31T13:59:14.811Z,1.40
2018-05-31T14:01:41.519Z,1.23
2018-05-31T14:04:08.280Z,1.00
2018-05-31T14:06:34.988Z,1.10
2018-05-31T14:09:01.697Z,1.20
2018-05-31T14:11:28.399Z,1.20
2018-05-31T14:13:55.129Z,1.30
2018-05-31T14:16:21.860Z,1.20
2018-05-31T14:18:48.559Z,1.30
2018-05-31T14:21:15.293Z,1.20
2018-05-31T14:23:41.996Z,1.27
2018-05-31T14:26:08.814Z,1.27
2018-05-31T14:28:35.545Z,1.27
2018-05-31T14:31:02.252Z,1.20
2018-05-31T14:33:28.963Z,1.50
2018-05-31T14:35:55.681Z,1.30
2018-05-31T14:38:22.457Z,1.30
2018-05-31T14:40:49.166Z,1.30
2018-05-31T14:43:15.888Z,1.10
2018-05-31T14:45:42.599Z,1.20
2018-05-31T14:48:09.307Z,1.30
2018-05-31T14:50:37.095Z,1.53
2018-05-31T14:53:04.583Z,1.20
2018-05-31T14:55:31.299Z,1.20
2018-05-31T14:57:58.000Z,1.30
2018-05-31T15:00:24.704Z,1.40
2018-05-31T15:02:51.440Z,1.17
2018-05-31T15:05:18.163Z,1.30
2018-05-31T15:07:44.901Z,1.00
2018-05-31T15:10:11.616Z,1.10
2018-05-31T15:12:38.339Z,1.17
2018-05-31T15:15:07.797Z,1.20
2018-05-31T15:17:34.652Z,1.10
2018-05-31T15:20:02.685Z,1.07
2018-05-31T15:22:29.761Z,1.20
2018-05-31T15:24:56.968Z,1.20
2018-05-31T15:27:24.077Z,1.20
2018-05-31T15:29:51.137Z,1.10
2018-05-31T15:32:17.864Z,1.13
2018-05-31T15:34:52.918Z,1.10
2018-05-31T15:37:19.648Z,1.10
2018-05-31T15:39:46.386Z,1.00
2018-05-31T15:42:13.092Z,1.10
2018-05-31T15:44:39.793Z,1.00
2018-05-31T15:47:06.933Z,1.10
2018-05-31T15:49:33.763Z,1.30
2018-05-31T15:52:00.636Z,1.10
2018-05-31T15:54:27.347Z,1.10
2018-05-31T15:56:54.044Z,1.10
2018-05-31T15:59:20.747Z,1.23
2018-05-31T16:01:47.448Z,1.20
2018-05-31T16:04:17.095Z,1.10
2018-05-31T16:06:43.795Z,1.30
2018-05-31T16:09:10.783Z,1.20
2018-05-31T16:11:37.488Z,1.10
2018-05-31T16:14:04.192Z,1.10
2018-05-31T16:16:30.892Z,1.10
2018-05-31T16:18:57.592Z,1.10
2018-05-31T16:21:24.325Z,1.00
2018-05-31T16:23:51.032Z,1.30
2018-05-31T16:26:18.168Z,1.00
2018-05-31T16:28:44.863Z,1.10
2018-05-31T16:31:11.573Z,0.90
2018-05-31T16:33:38.313Z,1.20
2018-05-31T16:36:05.026Z,1.10
2018-05-31T16:41:00.456Z,1.00
2018-05-31T16:43:27.155Z,1.00
2018-05-31T16:45:53.893Z,1.20
2018-05-31T16:48:20.603Z,1.20
2018-05-31T16:50:47.438Z,1.10
2018-05-31T16:53:14.139Z,1.10
2018-05-31T16:55:40.835Z,1.07
2018-05-31T16:58:07.583Z,1.40
2018-05-31T17:00:34.648Z,1.30
2018-05-31T17:03:01.747Z,1.20
2018-05-31T17:05:28.800Z,1.40
2018-05-31T17:07:55.820Z,1.10
2018-05-31T17:10:22.544Z,1.10
2018-05-31T17:12:49.265Z,1.10
2018-05-31T17:15:15.968Z,1.30
2018-05-31T17:17:42.676Z,1.10
2018-05-31T17:20:09.392Z,1.07
2018-05-31T17:22:36.119Z,1.10
2018-05-31T17:25:02.832Z,1.30
2018-05-31T17:27:29.537Z,1.10
2018-05-31T17:29:56.244Z,1.10
2018-05-31T17:32:22.939Z,1.30
2018-05-31T17:34:49.657Z,1.20
2018-05-31T17:37:16.374Z,1.10
2018-05-31T17:39:43.157Z,1.00
2018-05-31T17:42:09.861Z,1.20
2018-05-31T17:44:36.578Z,1.20
2018-05-31T17:47:03.308Z,1.40
2018-05-31T17:49:30.019Z,1.43
2018-05-31T17:51:56.725Z,1.10
2018-05-31T17:54:23.432Z,1.17
2018-05-31T17:56:50.136Z,1.30
2018-05-31T17:59:16.872Z,1.10
2018-05-31T18:01:43.581Z,1.30
2018-05-31T18:04:10.454Z,1.10
2018-05-31T18:06:37.164Z,1.17
2018-05-31T18:09:03.859Z,1.10
2018-05-31T18:11:30.616Z,1.10
2018-05-31T18:13:57.355Z,1.10
2018-05-31T18:16:24.060Z,1.00
2018-05-31T18:18:50.759Z,1.10
2018-05-31T18:21:17.473Z,1.40
2018-05-31T18:23:44.490Z,1.20
2018-05-31T18:26:11.194Z,1.10
2018-05-31T18:28:37.900Z,1.17
2018-05-31T18:31:04.591Z,1.23
2018-05-31T18:33:31.322Z,1.30
2018-05-31T18:35:58.067Z,1.10
2018-05-31T18:38:24.795Z,1.20
2018-05-31T18:40:51.514Z,1.10
2018-05-31T18:43:18.219Z,1.33
2018-05-31T18:45:44.925Z,1.30
2018-05-31T18:48:11.646Z,1.40
2018-05-31T18:50:38.352Z,1.20
2018-05-31T18:53:05.051Z,1.30
2018-05-31T18:55:32.624Z,1.30
2018-05-31T18:57:59.380Z,1.10
2018-05-31T19:00:26.128Z,1.30
2018-05-31T19:02:52.823Z,1.10
2018-05-31T19:05:19.534Z,1.13
2018-05-31T19:07:46.240Z,1.10
2018-05-31T19:10:12.944Z,1.20
2018-05-31T19:12:45.213Z,1.27
2018-05-31T19:15:11.973Z,1.20
2018-05-31T19:17:38.683Z,1.10
2018-05-31T19:20:05.402Z,1.20
2018-05-31T19:22:32.103Z,1.13
2018-05-31T19:25:04.411Z,1.10
2018-05-31T19:27:31.127Z,1.20
2018-05-31T19:30:03.676Z,1.30
2018-05-31T19:32:30.437Z,1.50
2018-05-31T19:34:57.116Z,1.30
2018-05-31T19:37:23.827Z,1.17
2018-05-31T19:39:50.523Z,1.10
2018-05-31T19:42:22.948Z,1.50
2018-05-31T19:44:49.751Z,1.40
2018-05-31T19:47:16.461Z,1.27
2018-05-31T19:49:43.165Z,1.40
2018-05-31T19:52:15.565Z,1.27
2018-05-31T19:54:42.290Z,1.30
2018-05-31T19:57:09.186Z,1.33
2018-05-31T19:59:41.636Z,1.40
2018-05-31T20:02:14.168Z,1.37
2018-05-31T20:04:40.875Z,1.30
2018-05-31T20:07:07.583Z,1.13
2018-05-31T20:09:34.279Z,1.20
2018-05-31T20:12:01.004Z,1.20
2018-05-31T20:14:28.003Z,1.27
2018-05-31T20:16:54.720Z,1.20
2018-05-31T20:19:21.453Z,1.50
2018-05-31T20:21:48.158Z,1.40
2018-05-31T20:24:14.973Z,1.23
2018-05-31T20:26:41.712Z,1.33
2018-05-31T20:29:08.419Z,1.20
2018-05-31T20:31:35.144Z,1.40
2018-05-31T20:34:01.860Z,1.20
2018-05-31T20:36:28.599Z,1.30
2018-05-31T20:38:55.343Z,1.43
2018-05-31T20:41:22.062Z,1.40
2018-05-31T20:43:48.764Z,1.20
2018-05-31T20:46:15.499Z,1.60
2018-05-31T20:48:42.287Z,1.67
2018-05-31T20:51:09.038Z,1.60
2018-05-31T20:53:35.737Z,1.50
2018-05-31T20:56:02.449Z,1.67
2018-05-31T20:58:29.160Z,1.50
2018-05-31T21:00:55.963Z,1.40
2018-05-31T21:03:22.687Z,1.60
2018-05-31T21:05:49.386Z,1.20
2018-05-31T21:08:16.088Z,1.50
2018-05-31T21:10:42.798Z,1.23
2018-05-31T21:13:09.537Z,1.53
2018-05-31T21:15:36.247Z,1.47
2018-05-31T21:18:02.969Z,1.70
2018-05-31T21:20:29.684Z,1.40
2018-05-31T21:22:56.410Z,1.40
2018-05-31T21:25:23.147Z,1.57
2018-05-31T21:27:49.865Z,1.53
2018-05-31T21:30:16.571Z,1.30
2018-05-31T21:32:43.275Z,1.30
2018-05-31T21:35:10.053Z,1.37
2018-05-31T21:37:36.820Z,1.40
2018-05-31T21:40:03.531Z,1.60
2018-05-31T21:42:30.244Z,1.60
2018-05-31T21:44:56.970Z,1.80
2018-05-31T21:47:23.707Z,1.50
2018-05-31T21:49:50.462Z,1.70
2018-05-31T21:52:17.164Z,1.70
2018-05-31T21:54:44.355Z,1.77
2018-05-31T21:57:11.055Z,1.80
2018-05-31T21:59:37.787Z,1.70
2018-05-31T22:02:04.508Z,1.70
2018-05-31T22:04:31.223Z,1.63
2018-05-31T22:06:57.923Z,1.70
2018-05-31T22:09:24.627Z,1.87
2018-05-31T22:11:51.353Z,1.43
2018-05-31T22:14:18.079Z,1.70
2018-05-31T22:16:44.788Z,1.67
2018-05-31T22:19:11.489Z,1.93
2018-05-31T22:21:38.188Z,1.73
2018-05-31T22:24:04.888Z,1.80
2018-05-31T22:26:31.616Z,1.73
2018-05-31T22:28:58.312Z,1.90
2018-05-31T22:31:25.020Z,1.63
2018-05-31T22:33:51.736Z,1.70
2018-05-31T22:36:18.455Z,1.90
2018-05-31T22:38:45.195Z,1.70
2018-05-31T22:41:11.907Z,1.70
2018-05-31T22:43:38.611Z,1.47
2018-05-31T22:46:05.361Z,1.47
2018-05-31T22:48:32.031Z,1.50
2018-05-31T22:50:58.764Z,1.60
2018-05-31T22:53:25.463Z,1.80
2018-05-31T22:55:52.163Z,2.13
2018-05-31T22:58:18.863Z,1.70
2018-05-31T23:00:45.560Z,1.50
2018-05-31T23:03:12.485Z,1.70
2018-05-31T23:05:39.188Z,1.83
2018-05-31T23:08:05.880Z,1.50
2018-05-31T23:10:32.583Z,1.80
2018-05-31T23:12:59.287Z,1.80
2018-05-31T23:15:26.012Z,1.83
2018-05-31T23:17:52.721Z,2.07
2018-05-31T23:20:19.424Z,1.70
2018-05-31T23:22:46.124Z,2.00
2018-05-31T23:25:12.820Z,1.83
2018-05-31T23:27:39.543Z,1.80
2018-05-31T23:30:06.241Z,1.80
2018-05-31T23:32:32.948Z,1.70
2018-05-31T23:34:59.642Z,1.70
2018-05-31T23:37:26.360Z,1.80
2018-05-31T23:39:53.090Z,1.90
2018-05-31T23:42:19.783Z,1.67
2018-05-31T23:44:46.476Z,1.87
2018-05-31T23:47:13.184Z,1.83
2018-05-31T23:49:39.884Z,1.60
2018-05-31T23:52:06.613Z,1.70
2018-05-31T23:54:33.315Z,1.80
2018-05-31T23:57:00.013Z,1.70
2018-05-31T23:59:26.711Z,2.00
